Time,TemperatureF,DewpointF,PressureIn,WindDirection,WindDirectionDegrees,WindSpeedMPH,WindSpeedGustMPH,Humidity,HourlyPrecipIn,Conditions,Clouds,dailyrainin,SoftwareType,DateUTC
2013-07-10 00:01:00,62.0,39.0,-100.00,SSE,164,4.0,6.0,41,0.00,,,-99.99,,2013-07-10 06:01:00,
2013-07-10 00:11:00,63.0,39.0,-100.00,SSE,165,2.0,4.0,41,0.00,,,-99.99,,2013-07-10 06:11:00,
2013-07-10 00:32:00,63.0,38.0,-100.00,SE,136,4.0,7.0,41,0.00,,,-99.99,,2013-07-10 06:32:00,
2013-07-10 00:42:00,62.0,38.0,-100.00,SE,130,6.0,8.0,42,0.00,,,-99.99,,2013-07-10 06:42:00,
2013-07-10 01:01:00,62.0,38.0,-100.00,ESE,116,6.0,8.0,41,0.00,,,-99.99,,2013-07-10 07:01:00,
2013-07-10 01:11:00,63.0,38.0,-100.00,ESE,110,5.0,7.0,41,0.00,,,-99.99,,2013-07-10 07:11:00,
2013-07-10 01:33:00,63.0,39.0,-100.00,ESE,103,7.0,11.0,40,0.00,,,-99.99,,2013-07-10 07:33:00,
2013-07-10 02:01:00,63.0,44.0,-100.00,East,100,13.0,22.0,50,0.00,,,-99.99,,2013-07-10 08:01:00,
2013-07-10 02:42:00,62.0,43.0,-100.00,ESE,113,15.0,19.0,51,0.00,,,-99.99,,2013-07-10 08:42:00,
2013-07-10 03:12:00,62.0,43.0,-100.00,SE,130,14.0,17.0,49,0.00,,,-99.99,,2013-07-10 09:12:00,
2013-07-10 03:42:00,62.0,42.0,-100.00,ESE,117,13.0,16.0,48,0.00,,,-99.99,,2013-07-10 09:42:00,
2013-07-10 04:13:00,62.0,41.0,-100.00,ESE,106,15.0,19.0,45,0.00,,,-99.99,,2013-07-10 10:13:00,
2013-07-10 04:50:00,-999.0,-99.9,-100.00,East,86,6.0,9.0,-999,-99.99,,,-99.99,,2013-07-10 10:50:00,
2013-07-10 05:00:00,-999.0,-99.9,-100.00,ESE,113,12.0,19.0,-999,-99.99,,,-99.99,,2013-07-10 11:00:00,
2013-07-10 05:33:00,58.0,42.0,-100.00,ESE,104,18.0,23.0,56,0.00,,,-99.99,,2013-07-10 11:33:00,
2013-07-10 05:43:00,58.0,42.0,-100.00,ESE,110,17.0,23.0,57,0.00,,,-99.99,,2013-07-10 11:43:00,
2013-07-10 06:01:00,59.0,41.0,-100.00,ESE,102,16.0,21.0,51,0.00,,,-99.99,,2013-07-10 12:01:00,
2013-07-10 06:43:00,60.0,39.0,-100.00,ESE,116,9.0,15.0,45,0.00,,,-99.99,,2013-07-10 12:43:00,
2013-07-10 08:11:00,64.0,41.0,-100.00,WNW,299,4.0,6.0,42,0.00,,,-99.99,,2013-07-10 14:11:00,
2013-07-10 08:43:00,69.0,39.0,-100.00,WNW,289,1.0,4.0,34,0.00,,,-99.99,,2013-07-10 14:43:00,
2013-07-10 09:11:00,71.0,40.0,-100.00,West,274,2.0,6.0,33,0.00,,,-99.99,,2013-07-10 15:11:00,
2013-07-10 09:22:00,72.0,41.0,-100.00,WNW,298,2.0,6.0,32,0.00,,,-99.99,,2013-07-10 15:22:00,
2013-07-10 09:42:00,74.0,39.0,-100.00,WNW,302,3.0,6.0,28,0.00,,,-99.99,,2013-07-10 15:42:00,
2013-07-10 10:44:00,77.0,38.0,-100.00,WNW,295,7.0,12.0,25,0.00,,,-99.99,,2013-07-10 16:44:00,
2013-07-10 11:02:00,77.0,39.0,-100.00,NW,325,9.0,12.0,25,0.00,,,-99.99,,2013-07-10 17:02:00,
2013-07-10 11:42:00,78.0,36.0,-100.00,WNW,294,11.0,16.0,22,0.00,,,-99.99,,2013-07-10 17:42:00,
2013-07-10 12:44:00,81.0,36.0,-100.00,NW,304,14.0,21.0,20,0.00,,,-99.99,,2013-07-10 18:44:00,
2013-07-10 12:52:00,80.0,36.0,-100.00,WNW,292,11.0,17.0,21,0.00,,,-99.99,,2013-07-10 18:52:00,
2013-07-10 13:01:00,80.0,34.0,-100.00,WNW,298,12.0,18.0,19,0.00,,,-99.99,,2013-07-10 19:01:00,
2013-07-10 13:11:00,80.0,35.0,-100.00,WNW,289,12.0,17.0,19,0.00,,,-99.99,,2013-07-10 19:11:00,
2013-07-10 13:21:00,80.0,33.0,-100.00,West,264,10.0,17.0,18,0.00,,,-99.99,,2013-07-10 19:21:00,
2013-07-10 13:42:00,81.0,30.0,-100.00,West,263,13.0,19.0,15,0.00,,,-99.99,,2013-07-10 19:42:00,
2013-07-10 14:22:00,80.0,27.0,-100.00,WSW,256,12.0,22.0,14,0.00,,,-99.99,,2013-07-10 20:22:00,
2013-07-10 14:32:00,82.0,27.0,-100.00,WSW,257,17.0,24.0,13,0.00,,,-99.99,,2013-07-10 20:32:00,
2013-07-10 14:43:00,82.0,27.0,-100.00,WSW,254,16.0,21.0,14,0.00,,,-99.99,,2013-07-10 20:43:00,
2013-07-10 15:01:00,82.0,27.0,-100.00,West,272,7.0,14.0,13,0.00,,,-99.99,,2013-07-10 21:01:00,
2013-07-10 15:11:00,81.0,27.0,-100.00,WSW,237,14.0,30.0,14,0.00,,,-99.99,,2013-07-10 21:11:00,
2013-07-10 15:22:00,83.0,28.0,-100.00,WSW,239,13.0,19.0,13,0.00,,,-99.99,,2013-07-10 21:22:00,
2013-07-10 15:41:00,83.0,29.0,-100.00,WSW,258,13.0,19.0,14,0.00,,,-99.99,,2013-07-10 21:41:00,
2013-07-10 16:01:00,82.0,28.0,-100.00,West,267,9.0,18.0,14,0.00,,,-99.99,,2013-07-10 22:01:00,
2013-07-10 16:11:00,83.0,29.0,-100.00,WNW,296,9.0,16.0,14,0.00,,,-99.99,,2013-07-10 22:11:00,
2013-07-10 16:42:00,84.0,29.0,-100.00,WSW,237,12.0,19.0,13,0.00,,,-99.99,,2013-07-10 22:42:00,
2013-07-10 17:01:00,83.0,27.0,-100.00,WSW,243,12.0,25.0,13,0.00,,,-99.99,,2013-07-10 23:01:00,
2013-07-10 17:11:00,82.0,28.0,-100.00,WNW,289,8.0,13.0,14,0.00,,,-99.99,,2013-07-10 23:11:00,
2013-07-10 18:01:00,84.0,26.0,-100.00,WNW,284,12.0,17.0,12,0.00,,,-99.99,,2013-07-11 00:01:00,
2013-07-10 18:42:00,81.0,27.0,-100.00,NW,315,10.0,14.0,14,0.00,,,-99.99,,2013-07-11 00:42:00,
2013-07-10 19:11:00,79.0,41.0,-100.00,North,8,13.0,18.0,26,0.00,,,-99.99,,2013-07-11 01:11:00,
2013-07-10 19:43:00,79.0,40.0,-100.00,North,1,12.0,15.0,25,0.00,,,-99.99,,2013-07-11 01:43:00,
2013-07-10 20:11:00,78.0,42.0,-100.00,NNE,24,11.0,14.0,28,0.00,,,-99.99,,2013-07-11 02:11:00,
2013-07-10 20:43:00,75.0,44.0,-100.00,NNE,24,11.0,13.0,33,0.00,,,-99.99,,2013-07-11 02:43:00,
2013-07-10 21:42:00,71.0,46.0,-100.00,ENE,58,12.0,17.0,40,0.00,,,-99.99,,2013-07-11 03:42:00,
2013-07-10 22:12:00,69.0,47.0,-100.00,East,100,7.0,12.0,45,0.00,,,-99.99,,2013-07-11 04:12:00,
2013-07-10 22:42:00,67.0,48.0,-100.00,ESE,120,12.0,17.0,50,0.00,,,-99.99,,2013-07-11 04:42:00,
2013-07-10 23:01:00,66.0,48.0,-100.00,ESE,107,12.0,16.0,53,0.00,,,-99.99,,2013-07-11 05:01:00,
2013-07-10 23:32:00,66.0,49.0,-100.00,ESE,114,19.0,27.0,56,0.00,,,-99.99,,2013-07-11 05:32:00,
2013-07-10 23:43:00,65.0,49.0,-100.00,ESE,114,17.0,23.0,57,0.00,,,-99.99,,2013-07-11 05:43:00,